sensor_id;sensor_type;location;lat;lon;timestamp;pressure;altitude;pressure_sealevel;temperature
37452;BMP280;23314;51.114;6.900;2022-08-05T00:00:44;101015.38;;;22.26
37452;BMP280;23314;51.114;6.900;2022-08-05T00:03:09;101010.97;;;22.29
37452;BMP280;23314;51.114;6.900;2022-08-05T00:05:35;101017.88;;;22.30
37452;BMP280;23314;51.114;6.900;2022-08-05T00:08:00;101024.34;;;22.32
37452;BMP280;23314;51.114;6.900;2022-08-05T00:10:25;101020.38;;;22.33
37452;BMP280;23314;51.114;6.900;2022-08-05T00:12:51;101019.63;;;22.33
37452;BMP280;23314;51.114;6.900;2022-08-05T00:15:16;101021.13;;;22.34
37452;BMP280;23314;51.114;6.900;2022-08-05T00:17:41;101025.81;;;22.33
37452;BMP280;23314;51.114;6.900;2022-08-05T00:20:07;101025.56;;;22.31
37452;BMP280;23314;51.114;6.900;2022-08-05T00:22:33;101030.50;;;22.33
37452;BMP280;23314;51.114;6.900;2022-08-05T00:24:58;101028.53;;;22.33
37452;BMP280;23314;51.114;6.900;2022-08-05T00:27:23;101028.53;;;22.33
37452;BMP280;23314;51.114;6.900;2022-08-05T00:29:49;101027.31;;;22.34
37452;BMP280;23314;51.114;6.900;2022-08-05T00:32:14;101020.38;;;22.33
37452;BMP280;23314;51.114;6.900;2022-08-05T00:34:40;101021.63;;;22.32
37452;BMP280;23314;51.114;6.900;2022-08-05T00:37:06;101023.09;;;22.33
37452;BMP280;23314;51.114;6.900;2022-08-05T00:39:31;101025.81;;;22.33
37452;BMP280;23314;51.114;6.900;2022-08-05T00:41:56;101026.78;;;22.30
37452;BMP280;23314;51.114;6.900;2022-08-05T00:44:22;101020.34;;;22.28
37452;BMP280;23314;51.114;6.900;2022-08-05T00:46:48;101021.78;;;22.23
37452;BMP280;23314;51.114;6.900;2022-08-05T00:49:13;101017.53;;;22.16
37452;BMP280;23314;51.114;6.900;2022-08-05T00:51:38;101011.28;;;22.10
37452;BMP280;23314;51.114;6.900;2022-08-05T00:54:04;101007.31;;;22.06
37452;BMP280;23314;51.114;6.900;2022-08-05T00:56:29;101014.47;;;22.03
37452;BMP280;23314;51.114;6.900;2022-08-05T00:58:55;101020.88;;;22.00
37452;BMP280;23314;51.114;6.900;2022-08-05T01:01:20;101021.06;;;21.96
37452;BMP280;23314;51.114;6.900;2022-08-05T01:03:45;101030.91;;;21.94
37452;BMP280;23314;51.114;6.900;2022-08-05T01:06:11;101051.66;;;21.91
37452;BMP280;23314;51.114;6.900;2022-08-05T01:08:36;101051.84;;;21.88
37452;BMP280;23314;51.114;6.900;2022-08-05T01:11:10;101052.81;;;21.84
37452;BMP280;23314;51.114;6.900;2022-08-05T01:13:58;101048.06;;;21.79
37452;BMP280;23314;51.114;6.900;2022-08-05T01:16:51;101051.94;;;21.73
37452;BMP280;23314;51.114;6.900;2022-08-05T01:22:12;101048.44;;;21.66
37452;BMP280;23314;51.114;6.900;2022-08-05T01:24:48;101041.94;;;21.64
37452;BMP280;23314;51.114;6.900;2022-08-05T01:30:06;101039.19;;;21.58
37452;BMP280;23314;51.114;6.900;2022-08-05T01:35:50;101039.34;;;21.49
37452;BMP280;23314;51.114;6.900;2022-08-05T01:38:19;101051.16;;;21.46
37452;BMP280;23314;51.114;6.900;2022-08-05T01:40:45;101065.69;;;21.43
37452;BMP280;23314;51.114;6.900;2022-08-05T01:43:11;101073.97;;;21.39
37452;BMP280;23314;51.114;6.900;2022-08-05T01:45:38;101071.03;;;21.37
37452;BMP280;23314;51.114;6.900;2022-08-05T01:48:05;101091.25;;;21.36
37452;BMP280;23314;51.114;6.900;2022-08-05T01:50:39;101086.78;;;21.33
37452;BMP280;23314;51.114;6.900;2022-08-05T01:53:10;101091.16;;;21.30
37452;BMP280;23314;51.114;6.900;2022-08-05T01:55:37;101085.72;;;21.30
37452;BMP280;23314;51.114;6.900;2022-08-05T01:58:06;101099.56;;;21.32
37452;BMP280;23314;51.114;6.900;2022-08-05T02:00:34;101111.94;;;21.33
37452;BMP280;23314;51.114;6.900;2022-08-05T02:03:06;101134.94;;;21.38
37452;BMP280;23314;51.114;6.900;2022-08-05T02:05:33;101128.56;;;21.41
37452;BMP280;23314;51.114;6.900;2022-08-05T02:08:00;101132.28;;;21.44
37452;BMP280;23314;51.114;6.900;2022-08-05T02:10:29;101132.59;;;21.46
37452;BMP280;23314;51.114;6.900;2022-08-05T02:13:03;101126.41;;;21.45
37452;BMP280;23314;51.114;6.900;2022-08-05T02:16:27;101120.53;;;21.47
37452;BMP280;23314;51.114;6.900;2022-08-05T02:18:47;101130.31;;;21.44
37452;BMP280;23314;51.114;6.900;2022-08-05T02:21:29;101135.75;;;21.44
37452;BMP280;23314;51.114;6.900;2022-08-05T02:23:58;101140.44;;;21.44
37452;BMP280;23314;51.114;6.900;2022-08-05T02:26:35;101150.81;;;21.45
37452;BMP280;23314;51.114;6.900;2022-08-05T02:29:02;101141.47;;;21.46
37452;BMP280;23314;51.114;6.900;2022-08-05T02:31:29;101153.78;;;21.47
37452;BMP280;23314;51.114;6.900;2022-08-05T02:34:02;101164.22;;;21.49
37452;BMP280;23314;51.114;6.900;2022-08-05T02:36:30;101177.03;;;21.48
37452;BMP280;23314;51.114;6.900;2022-08-05T02:38:56;101183.41;;;21.45
37452;BMP280;23314;51.114;6.900;2022-08-05T02:41:24;101190.97;;;21.41
37452;BMP280;23314;51.114;6.900;2022-08-05T02:43:51;101200.53;;;21.37
37452;BMP280;23314;51.114;6.900;2022-08-05T02:46:19;101213.19;;;21.25
37452;BMP280;23314;51.114;6.900;2022-08-05T02:48:45;101237.44;;;20.98
37452;BMP280;23314;51.114;6.900;2022-08-05T02:51:13;101267.91;;;20.78
37452;BMP280;23314;51.114;6.900;2022-08-05T02:53:40;101280.97;;;20.65
37452;BMP280;23314;51.114;6.900;2022-08-05T02:56:07;101274.84;;;20.55
37452;BMP280;23314;51.114;6.900;2022-08-05T02:58:35;101228.66;;;20.50
37452;BMP280;23314;51.114;6.900;2022-08-05T03:01:01;101191.63;;;20.46
37452;BMP280;23314;51.114;6.900;2022-08-05T03:03:27;101133.91;;;20.40
37452;BMP280;23314;51.114;6.900;2022-08-05T03:05:54;101085.78;;;20.35
37452;BMP280;23314;51.114;6.900;2022-08-05T03:08:21;101037.28;;;20.22
37452;BMP280;23314;51.114;6.900;2022-08-05T03:10:46;100997.50;;;20.14
37452;BMP280;23314;51.114;6.900;2022-08-05T03:13:13;100985.03;;;20.07
37452;BMP280;23314;51.114;6.900;2022-08-05T03:15:46;101005.97;;;20.06
37452;BMP280;23314;51.114;6.900;2022-08-05T03:18:12;101042.69;;;20.07
37452;BMP280;23314;51.114;6.900;2022-08-05T03:20:38;101054.50;;;20.10
37452;BMP280;23314;51.114;6.900;2022-08-05T03:23:05;101075.91;;;20.08
37452;BMP280;23314;51.114;6.900;2022-08-05T03:25:33;101083.28;;;20.07
37452;BMP280;23314;51.114;6.900;2022-08-05T03:27:59;101088.25;;;20.09
37452;BMP280;23314;51.114;6.900;2022-08-05T03:30:27;101105.06;;;20.13
37452;BMP280;23314;51.114;6.900;2022-08-05T03:32:53;101130.03;;;20.17
37452;BMP280;23314;51.114;6.900;2022-08-05T03:35:19;101142.63;;;20.20
37452;BMP280;23314;51.114;6.900;2022-08-05T03:37:45;101151.91;;;20.28
37452;BMP280;23314;51.114;6.900;2022-08-05T03:40:10;101152.19;;;20.30
37452;BMP280;23314;51.114;6.900;2022-08-05T03:42:37;101158.16;;;20.35
37452;BMP280;23314;51.114;6.900;2022-08-05T03:45:05;101153.59;;;20.41
37452;BMP280;23314;51.114;6.900;2022-08-05T03:47:31;101147.28;;;20.44
37452;BMP280;23314;51.114;6.900;2022-08-05T03:49:56;101139.88;;;20.44
37452;BMP280;23314;51.114;6.900;2022-08-05T03:52:26;101131.75;;;20.44
37452;BMP280;23314;51.114;6.900;2022-08-05T03:54:59;101128.09;;;20.47
37452;BMP280;23314;51.114;6.900;2022-08-05T03:57:29;101136.06;;;20.51
37452;BMP280;23314;51.114;6.900;2022-08-05T04:00:08;101124.75;;;20.53
37452;BMP280;23314;51.114;6.900;2022-08-05T04:02:36;101121.84;;;20.56
37452;BMP280;23314;51.114;6.900;2022-08-05T04:05:02;101121.97;;;20.62
37452;BMP280;23314;51.114;6.900;2022-08-05T04:07:28;101110.94;;;20.66
37452;BMP280;23314;51.114;6.900;2022-08-05T04:09:54;101111.19;;;20.68
37452;BMP280;23314;51.114;6.900;2022-08-05T04:12:20;101104.75;;;20.65
37452;BMP280;23314;51.114;6.900;2022-08-05T04:14:46;101104.63;;;20.59
37452;BMP280;23314;51.114;6.900;2022-08-05T04:17:12;101097.44;;;20.56
37452;BMP280;23314;51.114;6.900;2022-08-05T04:19:46;101083.25;;;20.61
37452;BMP280;23314;51.114;6.900;2022-08-05T04:22:11;101059.69;;;20.68
37452;BMP280;23314;51.114;6.900;2022-08-05T04:24:42;101054.56;;;20.70
37452;BMP280;23314;51.114;6.900;2022-08-05T04:27:07;101054.81;;;20.72
37452;BMP280;23314;51.114;6.900;2022-08-05T04:29:33;101059.03;;;20.73
37452;BMP280;23314;51.114;6.900;2022-08-05T04:31:58;101064.19;;;20.71
37452;BMP280;23314;51.114;6.900;2022-08-05T04:34:24;101070.53;;;20.68
37452;BMP280;23314;51.114;6.900;2022-08-05T04:36:49;101089.81;;;20.70
37452;BMP280;23314;51.114;6.900;2022-08-05T04:39:14;101118.41;;;20.71
37452;BMP280;23314;51.114;6.900;2022-08-05T04:41:40;101099.59;;;20.67
37452;BMP280;23314;51.114;6.900;2022-08-05T04:44:05;101078.88;;;20.64
37452;BMP280;23314;51.114;6.900;2022-08-05T04:46:31;101115.59;;;20.65
37452;BMP280;23314;51.114;6.900;2022-08-05T04:48:56;101115.78;;;20.61
37452;BMP280;23314;51.114;6.900;2022-08-05T04:51:22;101123.81;;;20.56
37452;BMP280;23314;51.114;6.900;2022-08-05T04:53:47;101126.44;;;20.50
37452;BMP280;23314;51.114;6.900;2022-08-05T04:56:12;101126.59;;;20.46
37452;BMP280;23314;51.114;6.900;2022-08-05T04:58:39;101125.09;;;20.45
37452;BMP280;23314;51.114;6.900;2022-08-05T05:01:04;101116.22;;;20.45
37452;BMP280;23314;51.114;6.900;2022-08-05T05:03:30;101127.81;;;20.45
37452;BMP280;23314;51.114;6.900;2022-08-05T05:05:55;101130.63;;;20.51
37452;BMP280;23314;51.114;6.900;2022-08-05T05:08:20;101129.22;;;20.56
37452;BMP280;23314;51.114;6.900;2022-08-05T05:10:46;101116.69;;;20.58
37452;BMP280;23314;51.114;6.900;2022-08-05T05:13:17;101118.19;;;20.59
37452;BMP280;23314;51.114;6.900;2022-08-05T05:15:43;101119.97;;;20.62
37452;BMP280;23314;51.114;6.900;2022-08-05T05:18:12;101117.56;;;20.64
37452;BMP280;23314;51.114;6.900;2022-08-05T05:20:38;101122.78;;;20.68
37452;BMP280;23314;51.114;6.900;2022-08-05T05:23:03;101117.66;;;20.70
37452;BMP280;23314;51.114;6.900;2022-08-05T05:25:29;101112.06;;;20.74
37452;BMP280;23314;51.114;6.900;2022-08-05T05:27:54;101106.91;;;20.76
37452;BMP280;23314;51.114;6.900;2022-08-05T05:30:20;101119.34;;;20.83
37452;BMP280;23314;51.114;6.900;2022-08-05T05:32:46;101128.38;;;20.79
37452;BMP280;23314;51.114;6.900;2022-08-05T05:35:11;101137.75;;;20.78
37452;BMP280;23314;51.114;6.900;2022-08-05T05:37:58;101134.09;;;20.67
37452;BMP280;23314;51.114;6.900;2022-08-05T05:40:25;101135.59;;;20.53
37452;BMP280;23314;51.114;6.900;2022-08-05T05:42:50;101142.84;;;20.46
37452;BMP280;23314;51.114;6.900;2022-08-05T05:45:16;101132.22;;;20.43
37452;BMP280;23314;51.114;6.900;2022-08-05T05:47:42;101144.00;;;20.40
37452;BMP280;23314;51.114;6.900;2022-08-05T05:50:10;101140.72;;;20.36
37452;BMP280;23314;51.114;6.900;2022-08-05T05:52:36;101138.81;;;20.27
37452;BMP280;23314;51.114;6.900;2022-08-05T05:55:03;101145.91;;;20.24
37452;BMP280;23314;51.114;6.900;2022-08-05T05:57:28;101159.94;;;20.23
37452;BMP280;23314;51.114;6.900;2022-08-05T05:59:54;101149.56;;;20.21
37452;BMP280;23314;51.114;6.900;2022-08-05T06:02:19;101154.78;;;20.25
37452;BMP280;23314;51.114;6.900;2022-08-05T06:04:45;101147.84;;;20.24
37452;BMP280;23314;51.114;6.900;2022-08-05T06:07:10;101149.09;;;20.23
37452;BMP280;23314;51.114;6.900;2022-08-05T06:09:35;101154.03;;;20.24
37452;BMP280;23314;51.114;6.900;2022-08-05T06:12:01;101150.13;;;20.25
37452;BMP280;23314;51.114;6.900;2022-08-05T06:14:26;101145.91;;;20.24
37452;BMP280;23314;51.114;6.900;2022-08-05T06:16:52;101156.75;;;20.24
37452;BMP280;23314;51.114;6.900;2022-08-05T06:19:17;101158.69;;;20.24
37452;BMP280;23314;51.114;6.900;2022-08-05T06:21:43;101170.03;;;20.22
37452;BMP280;23314;51.114;6.900;2022-08-05T06:24:09;101172.75;;;20.22
37452;BMP280;23314;51.114;6.900;2022-08-05T06:26:35;101174.31;;;20.29
37452;BMP280;23314;51.114;6.900;2022-08-05T06:29:00;101179.41;;;20.36
37452;BMP280;23314;51.114;6.900;2022-08-05T06:31:25;101189.88;;;20.43
37452;BMP280;23314;51.114;6.900;2022-08-05T06:33:51;101189.59;;;20.41
37452;BMP280;23314;51.114;6.900;2022-08-05T06:36:16;101194.06;;;20.44
37452;BMP280;23314;51.114;6.900;2022-08-05T06:38:41;101194.47;;;20.52
37452;BMP280;23314;51.114;6.900;2022-08-05T06:41:07;101197.34;;;20.49
37452;BMP280;23314;51.114;6.900;2022-08-05T06:43:32;101196.47;;;20.42
37452;BMP280;23314;51.114;6.900;2022-08-05T06:45:58;101199.66;;;20.41
37452;BMP280;23314;51.114;6.900;2022-08-05T06:48:23;101192.97;;;20.36
37452;BMP280;23314;51.114;6.900;2022-08-05T06:50:49;101203.19;;;20.32
37452;BMP280;23314;51.114;6.900;2022-08-05T06:53:14;101199.59;;;20.35
37452;BMP280;23314;51.114;6.900;2022-08-05T06:55:40;101195.66;;;20.36
37452;BMP280;23314;51.114;6.900;2022-08-05T06:58:06;101196.25;;;20.40
37452;BMP280;23314;51.114;6.900;2022-08-05T07:00:32;101198.66;;;20.38
37452;BMP280;23314;51.114;6.900;2022-08-05T07:02:58;101204.50;;;20.37
37452;BMP280;23314;51.114;6.900;2022-08-05T07:05:23;101199.66;;;20.41
37452;BMP280;23314;51.114;6.900;2022-08-05T07:07:49;101207.72;;;20.50
37452;BMP280;23314;51.114;6.900;2022-08-05T07:10:14;101206.44;;;20.60
37452;BMP280;23314;51.114;6.900;2022-08-05T07:12:39;101210.50;;;20.65
37452;BMP280;23314;51.114;6.900;2022-08-05T07:15:23;101215.59;;;20.63
37452;BMP280;23314;51.114;6.900;2022-08-05T07:18:08;101223.84;;;20.69
37452;BMP280;23314;51.114;6.900;2022-08-05T07:20:33;101228.50;;;20.68
37452;BMP280;23314;51.114;6.900;2022-08-05T07:22:58;101226.44;;;20.63
37452;BMP280;23314;51.114;6.900;2022-08-05T07:25:24;101237.28;;;20.63
37452;BMP280;23314;51.114;6.900;2022-08-05T07:27:51;101242.88;;;20.59
37452;BMP280;23314;51.114;6.900;2022-08-05T07:30:17;101248.81;;;20.58
37452;BMP280;23314;51.114;6.900;2022-08-05T07:32:42;101242.88;;;20.59
37452;BMP280;23314;51.114;6.900;2022-08-05T07:35:08;101247.19;;;20.51
37452;BMP280;23314;51.114;6.900;2022-08-05T07:37:34;101265.75;;;20.43
37452;BMP280;23314;51.114;6.900;2022-08-05T07:39:59;101253.78;;;20.35
37452;BMP280;23314;51.114;6.900;2022-08-05T07:42:24;101264.84;;;20.22
37452;BMP280;23314;51.114;6.900;2022-08-05T07:44:50;101265.16;;;20.15
37452;BMP280;23314;51.114;6.900;2022-08-05T07:47:15;101267.81;;;20.00
37452;BMP280;23314;51.114;6.900;2022-08-05T07:49:40;101274.78;;;19.92
37452;BMP280;23314;51.114;6.900;2022-08-05T07:52:06;101272.56;;;19.81
37452;BMP280;23314;51.114;6.900;2022-08-05T07:54:31;101279.94;;;19.71
37452;BMP280;23314;51.114;6.900;2022-08-05T07:56:56;101286.59;;;19.61
37452;BMP280;23314;51.114;6.900;2022-08-05T07:59:22;101293.38;;;19.56
37452;BMP280;23314;51.114;6.900;2022-08-05T08:01:47;101298.78;;;19.56
37452;BMP280;23314;51.114;6.900;2022-08-05T08:04:12;101298.19;;;19.52
37452;BMP280;23314;51.114;6.900;2022-08-05T08:06:37;101313.84;;;19.48
37452;BMP280;23314;51.114;6.900;2022-08-05T08:09:03;101319.44;;;19.45
37452;BMP280;23314;51.114;6.900;2022-08-05T08:11:28;101312.06;;;19.36
37452;BMP280;23314;51.114;6.900;2022-08-05T08:13:54;101323.50;;;19.31
37452;BMP280;23314;51.114;6.900;2022-08-05T08:16:19;101324.69;;;19.30
37452;BMP280;23314;51.114;6.900;2022-08-05T08:18:44;101326.03;;;19.25
37452;BMP280;23314;51.114;6.900;2022-08-05T08:21:10;101320.19;;;19.26
37452;BMP280;23314;51.114;6.900;2022-08-05T08:23:35;101339.13;;;19.26
37452;BMP280;23314;51.114;6.900;2022-08-05T08:26:01;101326.03;;;19.25
37452;BMP280;23314;51.114;6.900;2022-08-05T08:28:26;101331.44;;;19.25
37452;BMP280;23314;51.114;6.900;2022-08-05T08:30:52;101340.75;;;19.24
37452;BMP280;23314;51.114;6.900;2022-08-05T08:33:17;101349.34;;;19.22
37452;BMP280;23314;51.114;6.900;2022-08-05T08:35:42;101349.78;;;19.21
37452;BMP280;23314;51.114;6.900;2022-08-05T08:38:08;101349.19;;;19.17
37452;BMP280;23314;51.114;6.900;2022-08-05T08:40:34;101341.22;;;19.13
37452;BMP280;23314;51.114;6.900;2022-08-05T08:43:00;101348.88;;;19.15
37452;BMP280;23314;51.114;6.900;2022-08-05T08:45:26;101346.19;;;19.15
37452;BMP280;23314;51.114;6.900;2022-08-05T08:47:53;101352.78;;;19.23
37452;BMP280;23314;51.114;6.900;2022-08-05T08:50:19;101364.06;;;19.21
37452;BMP280;23314;51.114;6.900;2022-08-05T08:52:52;101357.91;;;19.12
37452;BMP280;23314;51.114;6.900;2022-08-05T08:55:17;101371.84;;;19.10
37452;BMP280;23314;51.114;6.900;2022-08-05T08:57:45;101369.88;;;19.01
37452;BMP280;23314;51.114;6.900;2022-08-05T09:00:11;101381.31;;;18.96
37452;BMP280;23314;51.114;6.900;2022-08-05T09:02:37;101379.34;;;18.97
37452;BMP280;23314;51.114;6.900;2022-08-05T09:05:03;101383.88;;;19.00
37452;BMP280;23314;51.114;6.900;2022-08-05T09:07:28;101390.31;;;19.02
37452;BMP280;23314;51.114;6.900;2022-08-05T09:09:54;101396.06;;;19.04
37452;BMP280;23314;51.114;6.900;2022-08-05T09:12:19;101397.53;;;19.05
37452;BMP280;23314;51.114;6.900;2022-08-05T09:14:45;101397.84;;;19.07
37452;BMP280;23314;51.114;6.900;2022-08-05T09:17:11;101409.00;;;19.09
37452;BMP280;23314;51.114;6.900;2022-08-05T09:19:41;101412.16;;;19.08
37452;BMP280;23314;51.114;6.900;2022-08-05T09:22:06;101411.53;;;19.13
37452;BMP280;23314;51.114;6.900;2022-08-05T09:24:35;101421.31;;;19.20
37452;BMP280;23314;51.114;6.900;2022-08-05T09:27:07;101417.56;;;19.26
37452;BMP280;23314;51.114;6.900;2022-08-05T09:29:38;101415.47;;;19.31
37452;BMP280;23314;51.114;6.900;2022-08-05T09:32:06;101414.53;;;19.34
37452;BMP280;23314;51.114;6.900;2022-08-05T09:34:51;101420.88;;;19.40
37452;BMP280;23314;51.114;6.900;2022-08-05T09:37:22;101413.50;;;19.50
37452;BMP280;23314;51.114;6.900;2022-08-05T09:39:47;101415.47;;;19.68
37452;BMP280;23314;51.114;6.900;2022-08-05T09:42:15;101414.97;;;19.88
37452;BMP280;23314;51.114;6.900;2022-08-05T09:44:46;101416.75;;;20.00
37452;BMP280;23314;51.114;6.900;2022-08-05T09:49:43;101415.53;;;20.10
37452;BMP280;23314;51.114;6.900;2022-08-05T09:52:26;101423.97;;;20.12
37452;BMP280;23314;51.114;6.900;2022-08-05T09:57:38;101436.59;;;20.16
37452;BMP280;23314;51.114;6.900;2022-08-05T10:00:13;101443.34;;;20.11
37452;BMP280;23314;51.114;6.900;2022-08-05T10:02:47;101443.66;;;20.13
37452;BMP280;23314;51.114;6.900;2022-08-05T10:05:15;101450.41;;;20.18
37452;BMP280;23314;51.114;6.900;2022-08-05T10:07:56;101454.03;;;20.15
37452;BMP280;23314;51.114;6.900;2022-08-05T10:10:23;101454.91;;;20.21
37452;BMP280;23314;51.114;6.900;2022-08-05T10:12:52;101460.78;;;20.28
37452;BMP280;23314;51.114;6.900;2022-08-05T10:15:26;101464.81;;;20.33
37452;BMP280;23314;51.114;6.900;2022-08-05T10:18:12;101471.69;;;20.53
37452;BMP280;23314;51.114;6.900;2022-08-05T10:20:44;101478.38;;;20.76
37452;BMP280;23314;51.114;6.900;2022-08-05T10:25:43;101483.59;;;21.13
37452;BMP280;23314;51.114;6.900;2022-08-05T10:28:09;101480.88;;;21.37
37452;BMP280;23314;51.114;6.900;2022-08-05T10:30:35;101485.59;;;21.66
37452;BMP280;23314;51.114;6.900;2022-08-05T10:33:01;101485.50;;;21.91
37452;BMP280;23314;51.114;6.900;2022-08-05T10:35:27;101503.88;;;22.11
37452;BMP280;23314;51.114;6.900;2022-08-05T10:37:53;101500.19;;;22.29
37452;BMP280;23314;51.114;6.900;2022-08-05T10:43:58;101498.69;;;22.78
37452;BMP280;23314;51.114;6.900;2022-08-05T10:46:42;101498.25;;;22.85
37452;BMP280;23314;51.114;6.900;2022-08-05T10:49:08;101502.41;;;22.81
37452;BMP280;23314;51.114;6.900;2022-08-05T10:51:48;101516.34;;;22.68
37452;BMP280;23314;51.114;6.900;2022-08-05T10:54:15;101522.47;;;22.83
37452;BMP280;23314;51.114;6.900;2022-08-05T10:56:52;101523.25;;;22.84
37452;BMP280;23314;51.114;6.900;2022-08-05T10:59:28;101512.72;;;22.77
37452;BMP280;23314;51.114;6.900;2022-08-05T11:02:10;101526.16;;;22.80
37452;BMP280;23314;51.114;6.900;2022-08-05T11:04:45;101526.66;;;22.99
37452;BMP280;23314;51.114;6.900;2022-08-05T11:07:11;101531.94;;;23.08
37452;BMP280;23314;51.114;6.900;2022-08-05T11:12:40;101534.88;;;23.25
37452;BMP280;23314;51.114;6.900;2022-08-05T11:15:16;101543.50;;;23.44
37452;BMP280;23314;51.114;6.900;2022-08-05T11:17:43;101536.69;;;23.55
37452;BMP280;23314;51.114;6.900;2022-08-05T11:22:56;101551.75;;;23.76
37452;BMP280;23314;51.114;6.900;2022-08-05T11:25:36;101549.06;;;23.82
37452;BMP280;23314;51.114;6.900;2022-08-05T11:36:17;101538.47;;;24.16
37452;BMP280;23314;51.114;6.900;2022-08-05T11:41:27;101540.97;;;24.20
37452;BMP280;23314;51.114;6.900;2022-08-05T11:43:59;101536.66;;;24.07
37452;BMP280;23314;51.114;6.900;2022-08-05T11:46:54;101537.63;;;24.04
37452;BMP280;23314;51.114;6.900;2022-08-05T11:49:20;101535.97;;;24.12
37452;BMP280;23314;51.114;6.900;2022-08-05T11:51:49;101543.50;;;24.29
37452;BMP280;23314;51.114;6.900;2022-08-05T11:54:28;101533.53;;;24.20
37452;BMP280;23314;51.114;6.900;2022-08-05T11:56:55;101531.59;;;24.26
37452;BMP280;23314;51.114;6.900;2022-08-05T11:59:26;101543.34;;;24.44
37452;BMP280;23314;51.114;6.900;2022-08-05T12:02:06;101542.56;;;24.38
37452;BMP280;23314;51.114;6.900;2022-08-05T12:04:46;101551.59;;;24.17
37452;BMP280;23314;51.114;6.900;2022-08-05T12:07:15;101546.91;;;24.18
37452;BMP280;23314;51.114;6.900;2022-08-05T12:09:44;101543.72;;;24.25
37452;BMP280;23314;51.114;6.900;2022-08-05T12:12:11;101545.56;;;24.40
37452;BMP280;23314;51.114;6.900;2022-08-05T12:14:39;101545.75;;;24.74
37452;BMP280;23314;51.114;6.900;2022-08-05T12:17:09;101543.16;;;25.02
37452;BMP280;23314;51.114;6.900;2022-08-05T12:19:52;101540.22;;;25.22
37452;BMP280;23314;51.114;6.900;2022-08-05T12:22:20;101548.97;;;25.44
37452;BMP280;23314;51.114;6.900;2022-08-05T12:24:49;101544.25;;;25.67
37452;BMP280;23314;51.114;6.900;2022-08-05T12:27:24;101548.25;;;25.88
37452;BMP280;23314;51.114;6.900;2022-08-05T12:29:59;101558.22;;;25.86
37452;BMP280;23314;51.114;6.900;2022-08-05T12:32:25;101557.19;;;25.94
37452;BMP280;23314;51.114;6.900;2022-08-05T12:34:51;101562.13;;;26.19
37452;BMP280;23314;51.114;6.900;2022-08-05T12:37:16;101560.91;;;26.31
37452;BMP280;23314;51.114;6.900;2022-08-05T12:39:42;101558.63;;;26.29
37452;BMP280;23314;51.114;6.900;2022-08-05T12:42:15;101562.09;;;26.41
37452;BMP280;23314;51.114;6.900;2022-08-05T12:44:42;101566.34;;;26.48
37452;BMP280;23314;51.114;6.900;2022-08-05T12:47:08;101577.28;;;26.48
37452;BMP280;23314;51.114;6.900;2022-08-05T12:49:45;101579.50;;;26.49
37452;BMP280;23314;51.114;6.900;2022-08-05T12:52:16;101574.72;;;26.67
37452;BMP280;23314;51.114;6.900;2022-08-05T12:54:44;101579.41;;;26.83
37452;BMP280;23314;51.114;6.900;2022-08-05T12:57:10;101588.91;;;26.71
37452;BMP280;23314;51.114;6.900;2022-08-05T12:59:50;101590.19;;;26.59
37452;BMP280;23314;51.114;6.900;2022-08-05T13:02:25;101585.69;;;26.61
37452;BMP280;23314;51.114;6.900;2022-08-05T13:04:52;101583.66;;;26.73
37452;BMP280;23314;51.114;6.900;2022-08-05T13:07:23;101592.50;;;27.02
37452;BMP280;23314;51.114;6.900;2022-08-05T13:09:53;101592.59;;;27.32
37452;BMP280;23314;51.114;6.900;2022-08-05T13:12:23;101587.50;;;27.53
37452;BMP280;23314;51.114;6.900;2022-08-05T13:14:57;101587.13;;;27.68
37452;BMP280;23314;51.114;6.900;2022-08-05T13:17:25;101597.44;;;27.56
37452;BMP280;23314;51.114;6.900;2022-08-05T13:22:24;101598.75;;;27.44
37452;BMP280;23314;51.114;6.900;2022-08-05T13:24:50;101600.50;;;27.41
37452;BMP280;23314;51.114;6.900;2022-08-05T13:27:25;101605.06;;;27.64
37452;BMP280;23314;51.114;6.900;2022-08-05T13:29:50;101606.13;;;27.55
37452;BMP280;23314;51.114;6.900;2022-08-05T13:32:16;101607.56;;;27.26
37452;BMP280;23314;51.114;6.900;2022-08-05T13:34:41;101610.19;;;27.01
37452;BMP280;23314;51.114;6.900;2022-08-05T13:37:07;101616.03;;;26.75
37452;BMP280;23314;51.114;6.900;2022-08-05T13:39:32;101616.31;;;26.54
37452;BMP280;23314;51.114;6.900;2022-08-05T13:41:57;101617.31;;;26.57
37452;BMP280;23314;51.114;6.900;2022-08-05T13:44:23;101629.03;;;26.40
37452;BMP280;23314;51.114;6.900;2022-08-05T13:46:48;101621.31;;;26.16
37452;BMP280;23314;51.114;6.900;2022-08-05T13:49:13;101625.28;;;25.98
37452;BMP280;23314;51.114;6.900;2022-08-05T13:51:40;101633.75;;;25.83
37452;BMP280;23314;51.114;6.900;2022-08-05T13:54:07;101637.19;;;25.55
37452;BMP280;23314;51.114;6.900;2022-08-05T13:56:32;101643.03;;;25.26
37452;BMP280;23314;51.114;6.900;2022-08-05T13:58:57;101637.50;;;25.09
37452;BMP280;23314;51.114;6.900;2022-08-05T14:01:23;101646.13;;;24.96
37452;BMP280;23314;51.114;6.900;2022-08-05T14:03:48;101655.13;;;24.70
37452;BMP280;23314;51.114;6.900;2022-08-05T14:06:34;101651.34;;;24.30
37452;BMP280;23314;51.114;6.900;2022-08-05T14:08:59;101644.38;;;24.03
37452;BMP280;23314;51.114;6.900;2022-08-05T14:11:24;101647.09;;;23.97
37452;BMP280;23314;51.114;6.900;2022-08-05T14:13:50;101641.22;;;24.04
37452;BMP280;23314;51.114;6.900;2022-08-05T14:16:15;101642.59;;;24.20
37452;BMP280;23314;51.114;6.900;2022-08-05T14:18:42;101649.50;;;24.47
37452;BMP280;23314;51.114;6.900;2022-08-05T14:21:07;101647.72;;;24.71
37452;BMP280;23314;51.114;6.900;2022-08-05T14:23:32;101653.34;;;24.99
37452;BMP280;23314;51.114;6.900;2022-08-05T14:25:57;101659.41;;;25.26
37452;BMP280;23314;51.114;6.900;2022-08-05T14:28:23;101660.50;;;25.45
37452;BMP280;23314;51.114;6.900;2022-08-05T14:30:48;101656.53;;;25.52
37452;BMP280;23314;51.114;6.900;2022-08-05T14:33:13;101650.09;;;25.60
37452;BMP280;23314;51.114;6.900;2022-08-05T14:35:40;101659.78;;;25.62
37452;BMP280;23314;51.114;6.900;2022-08-05T14:38:05;101661.06;;;25.66
37452;BMP280;23314;51.114;6.900;2022-08-05T14:40:30;101654.59;;;25.69